Riverview, Missouri
Current Conditions -  °F | °C
As of 8:23 PM on Thursday 18 Dec 2014 (Local Time) from KSTL Reporting Station
Overcast Overcast  
Wind Chill: 28°   Ceiling: 2200
Heat Index: 34°   Visibility: 10mi
Dew Point: 25°   Wind: 7mph
Humidity: 70%   Direction: 50°NE
Pressure: 30.27"   Gusts: NA
Location:  38.7508°N, 90.2149°W
Report Text: KSTL 190223Z 05006KT 10SM BKN022 OVC032 01/M04 A3027 RMK AO2
Loading
Personal Weather Stations






























Interactive Weather Map New forecast layout! Learn more

10-Day Weather Forecast

Advertisements
Track Severe Weather on mobile